Chignik Lagoon, Alaska
Current Conditions -  °F | °C
As of 11:16 AM on Monday 24 Nov 2014 (Local Time) from PAJC Reporting Station
Overcast Overcast  
Wind Chill: 35°   Ceiling: 7000
Heat Index: 41°   Visibility: 10mi
Dew Point: 30°   Wind: 10mph
Humidity: 65%   Direction: 230°SW
Pressure: 29.72"   Gusts: NA
Location:  56.28°N, 158.51°W
Report Text: PAJC 242016Z AUTO 23009KT 180V040 10SM OVC070 05/M01 A2972 RMK AO1
Loading
Personal Weather Stations






























Interactive Weather Map New forecast layout! Learn more

10-Day Weather Forecast

Advertisements
Track Severe Weather on mobile